createdAt,value
2023-01-23T00:01:31.895Z,1.42
2023-01-23T00:03:59.076Z,1.42
2023-01-23T00:06:26.985Z,1.35
2023-01-23T00:08:56.174Z,1.29
2023-01-23T00:11:27.746Z,1.34
2023-01-23T00:13:54.267Z,1.39
2023-01-23T00:16:24.205Z,1.31
2023-01-23T00:18:51.791Z,1.24
2023-01-23T00:21:24.896Z,1.28
2023-01-23T00:23:54.931Z,1.32
2023-01-23T00:26:25.865Z,1.23
2023-01-23T00:28:53.783Z,1.24
2023-01-23T00:31:27.959Z,1.22
2023-01-23T00:34:05.511Z,1.05
2023-01-23T00:36:38.852Z,0.93
2023-01-23T00:39:14.385Z,0.88
2023-01-23T00:41:41.047Z,1.00
2023-01-23T00:44:07.565Z,0.94
2023-01-23T00:46:34.899Z,0.96
2023-01-23T00:49:01.613Z,0.92
2023-01-23T00:51:28.277Z,0.85
2023-01-23T00:53:56.177Z,0.80
2023-01-23T00:56:23.031Z,0.76
2023-01-23T00:58:49.785Z,0.76
2023-01-23T01:01:17.019Z,0.78
2023-01-23T01:03:44.334Z,0.79
2023-01-23T01:06:12.514Z,0.90
2023-01-23T01:08:39.347Z,0.98
2023-01-23T01:11:06.612Z,1.10
2023-01-23T01:13:33.450Z,1.20
2023-01-23T01:16:01.984Z,1.02
2023-01-23T01:18:30.089Z,0.84
2023-01-23T01:20:57.280Z,0.84
2023-01-23T01:23:23.967Z,0.73
2023-01-23T01:25:50.519Z,0.78
2023-01-23T01:28:17.375Z,0.85
2023-01-23T01:30:44.078Z,0.86
2023-01-23T01:33:11.144Z,0.96
2023-01-23T01:35:41.192Z,1.08
2023-01-23T01:38:08.876Z,1.20
2023-01-23T01:40:36.960Z,1.27
2023-01-23T01:43:09.611Z,1.18
2023-01-23T01:46:26.191Z,1.16
2023-01-23T01:49:01.752Z,1.18
2023-01-23T01:51:52.674Z,1.09
2023-01-23T01:54:46.889Z,0.83
2023-01-23T01:57:22.540Z,0.67
2023-01-23T02:00:22.022Z,0.56
2023-01-23T02:03:01.317Z,0.60
2023-01-23T02:05:37.877Z,0.70
2023-01-23T02:08:20.130Z,0.57
2023-01-23T02:10:47.216Z,0.57
2023-01-23T02:13:30.276Z,0.64
2023-01-23T02:15:59.810Z,0.62
2023-01-23T02:18:29.952Z,0.63
2023-01-23T02:21:01.551Z,0.61
2023-01-23T02:24:16.789Z,0.70
2023-01-23T02:26:46.563Z,0.69
2023-01-23T02:29:15.469Z,0.63
2023-01-23T02:31:45.832Z,0.59
2023-01-23T02:34:14.729Z,0.54
2023-01-23T02:36:47.395Z,0.60
2023-01-23T02:39:18.471Z,0.66
2023-01-23T02:41:51.308Z,0.58
2023-01-23T02:44:28.550Z,0.52
2023-01-23T02:47:05.059Z,0.65
2023-01-23T02:49:31.723Z,0.69
2023-01-23T02:51:58.357Z,0.81
2023-01-23T02:54:25.642Z,0.73
2023-01-23T02:56:52.268Z,0.68
2023-01-23T02:59:37.334Z,0.64
2023-01-23T03:02:05.378Z,0.50
2023-01-23T03:04:32.086Z,0.49
2023-01-23T03:06:59.196Z,0.68
2023-01-23T03:09:26.638Z,0.84
2023-01-23T03:11:53.304Z,0.99
2023-01-23T03:14:23.378Z,1.12
2023-01-23T03:16:51.461Z,1.10
2023-01-23T03:19:24.435Z,1.12
2023-01-23T03:21:51.882Z,1.12
2023-01-23T03:24:20.256Z,1.00
2023-01-23T03:26:48.655Z,0.80
2023-01-23T03:29:37.963Z,0.63
2023-01-23T03:32:05.695Z,0.50
2023-01-23T03:34:32.464Z,0.51
2023-01-23T03:37:00.364Z,0.65
2023-01-23T03:39:46.184Z,0.66
2023-01-23T03:42:12.697Z,0.58
2023-01-23T03:44:39.321Z,0.59
2023-01-23T03:47:07.121Z,0.78
2023-01-23T03:49:33.781Z,0.91
2023-01-23T03:52:00.715Z,0.95
2023-01-23T03:54:27.669Z,0.85
2023-01-23T03:56:54.691Z,0.84
2023-01-23T03:59:21.323Z,0.78
2023-01-23T04:01:48.186Z,0.59
2023-01-23T04:04:14.775Z,0.48
2023-01-23T04:06:41.221Z,0.53
2023-01-23T04:09:07.729Z,0.71
2023-01-23T04:11:34.202Z,0.83
2023-01-23T04:14:00.723Z,0.87
2023-01-23T04:16:28.631Z,0.85
2023-01-23T04:18:55.286Z,0.74
2023-01-23T04:21:22.034Z,0.77
2023-01-23T04:23:48.472Z,0.76
2023-01-23T04:26:15.364Z,0.89
2023-01-23T04:28:41.894Z,1.05
2023-01-23T04:31:09.485Z,1.06
2023-01-23T04:33:36.338Z,1.09
2023-01-23T04:36:06.755Z,1.18
2023-01-23T04:38:33.873Z,1.13
2023-01-23T04:41:00.711Z,1.06
2023-01-23T04:43:27.349Z,1.06
2023-01-23T04:45:56.128Z,1.18
2023-01-23T04:48:23.852Z,1.28
2023-01-23T04:50:51.396Z,1.27
2023-01-23T04:53:18.249Z,1.17
2023-01-23T04:55:49.143Z,1.03
2023-01-23T04:58:17.987Z,0.95
2023-01-23T05:00:44.794Z,0.90
2023-01-23T05:03:11.339Z,0.91
2023-01-23T05:05:37.801Z,0.98
2023-01-23T05:08:04.719Z,0.95
2023-01-23T05:10:31.602Z,0.89
2023-01-23T05:12:58.074Z,0.96
2023-01-23T05:15:24.529Z,1.11
2023-01-23T05:17:51.058Z,1.32
2023-01-23T05:20:17.929Z,1.36
2023-01-23T05:22:52.296Z,1.41
2023-01-23T05:25:29.139Z,1.44
2023-01-23T05:27:55.731Z,1.51
2023-01-23T05:30:23.375Z,1.57
2023-01-23T05:32:50.420Z,1.52
2023-01-23T05:35:17.400Z,1.43
2023-01-23T05:37:43.952Z,1.27
2023-01-23T05:40:13.312Z,1.21
2023-01-23T05:42:39.843Z,1.16
2023-01-23T05:45:06.998Z,1.16
2023-01-23T05:47:33.643Z,1.23
2023-01-23T05:50:01.001Z,1.37
2023-01-23T05:52:28.211Z,1.32
2023-01-23T05:54:54.869Z,1.34
2023-01-23T05:57:22.267Z,1.42
2023-01-23T05:59:48.720Z,1.24
2023-01-23T06:02:15.869Z,1.12
2023-01-23T06:04:42.418Z,1.08
2023-01-23T06:07:15.081Z,1.01
2023-01-23T06:09:41.621Z,1.15
2023-01-23T06:12:09.682Z,1.25
2023-01-23T06:14:36.620Z,1.28
2023-01-23T06:17:03.539Z,1.29
2023-01-23T06:19:30.093Z,1.15
2023-01-23T06:21:56.598Z,1.17
2023-01-23T06:24:23.091Z,1.21
2023-01-23T06:26:49.749Z,1.26
2023-01-23T06:29:16.255Z,1.32
2023-01-23T06:31:42.912Z,1.38
2023-01-23T06:34:09.446Z,1.46
2023-01-23T06:36:36.128Z,1.46
2023-01-23T06:39:02.996Z,1.47
2023-01-23T06:41:29.544Z,1.39
2023-01-23T06:43:56.496Z,1.43
2023-01-23T06:46:23.811Z,1.52
2023-01-23T06:48:52.329Z,1.56
2023-01-23T06:51:19.072Z,1.61
2023-01-23T06:53:45.570Z,1.61
2023-01-23T06:56:12.736Z,1.60
2023-01-23T06:58:39.384Z,1.60
2023-01-23T07:01:12.127Z,1.70
2023-01-23T07:03:38.883Z,1.76
2023-01-23T07:06:07.097Z,1.71
2023-01-23T07:08:34.688Z,1.66
2023-01-23T07:11:02.640Z,1.58
2023-01-23T07:13:30.260Z,1.64
2023-01-23T07:15:56.940Z,1.64
2023-01-23T07:18:25.077Z,1.70
2023-01-23T07:20:51.549Z,1.63
2023-01-23T07:23:18.046Z,1.62
2023-01-23T07:25:44.723Z,1.72
2023-01-23T07:28:11.562Z,1.65
2023-01-23T07:30:38.442Z,1.59
2023-01-23T07:33:06.387Z,1.67
2023-01-23T07:35:33.365Z,1.68
2023-01-23T07:37:59.885Z,1.80
2023-01-23T07:40:26.418Z,1.89
2023-01-23T07:42:52.893Z,1.94
2023-01-23T07:45:19.353Z,1.99
2023-01-23T07:47:45.957Z,1.89
2023-01-23T07:50:15.056Z,1.93
2023-01-23T07:52:41.547Z,1.87
2023-01-23T07:55:08.518Z,1.85
2023-01-23T07:57:35.098Z,1.72
2023-01-23T08:00:01.825Z,1.66
2023-01-23T08:02:28.443Z,1.71
2023-01-23T08:04:54.928Z,1.68
2023-01-23T08:07:21.468Z,1.70
2023-01-23T08:09:47.997Z,1.75
2023-01-23T08:12:14.531Z,1.71
2023-01-23T08:14:41.213Z,1.76
2023-01-23T08:17:07.724Z,1.81
2023-01-23T08:19:34.183Z,1.88
2023-01-23T08:22:00.690Z,1.93
2023-01-23T08:24:27.203Z,1.98
2023-01-23T08:26:53.672Z,2.04
2023-01-23T08:29:20.197Z,1.98
2023-01-23T08:31:46.806Z,1.99
2023-01-23T08:34:13.492Z,2.00
2023-01-23T08:36:40.035Z,2.06
2023-01-23T08:39:06.524Z,2.13
2023-01-23T08:41:33.074Z,1.82
2023-01-23T08:44:01.641Z,1.88
2023-01-23T08:46:29.429Z,2.00
2023-01-23T08:48:56.113Z,2.05
2023-01-23T08:51:22.709Z,1.93
2023-01-23T08:53:53.119Z,2.03
2023-01-23T08:56:23.108Z,2.26
2023-01-23T08:58:50.928Z,2.30
2023-01-23T09:01:24.389Z,2.32
2023-01-23T09:03:51.259Z,2.33
2023-01-23T09:06:21.429Z,2.16
2023-01-23T09:08:48.066Z,2.12
2023-01-23T09:11:16.107Z,1.88
2023-01-23T09:13:42.976Z,1.91
2023-01-23T09:16:10.238Z,1.99
2023-01-23T09:18:37.304Z,2.12
2023-01-23T09:21:11.291Z,2.13
2023-01-23T09:23:38.326Z,2.19
2023-01-23T09:26:08.827Z,2.29
2023-01-23T09:28:37.268Z,2.37
2023-01-23T09:31:07.257Z,2.38
2023-01-23T09:33:34.928Z,2.27
2023-01-23T09:36:02.303Z,2.24
2023-01-23T09:38:28.965Z,2.22
2023-01-23T09:40:59.504Z,2.36
2023-01-23T09:43:47.005Z,2.56
2023-01-23T09:46:28.573Z,2.62
2023-01-23T09:49:10.295Z,2.68
2023-01-23T09:52:05.704Z,2.39
2023-01-23T09:55:02.031Z,2.32
2023-01-23T09:57:42.628Z,2.51
2023-01-23T10:00:25.978Z,2.58
2023-01-23T10:02:56.771Z,2.70
2023-01-23T10:05:44.033Z,2.63
2023-01-23T10:08:36.423Z,2.52
2023-01-23T10:11:31.079Z,2.74
2023-01-23T10:14:47.275Z,2.69
2023-01-23T10:17:44.873Z,2.71
2023-01-23T10:20:36.888Z,2.76
2023-01-23T10:23:18.858Z,2.74
2023-01-23T10:25:46.459Z,2.75
2023-01-23T10:28:38.731Z,2.87
2023-01-23T10:31:26.288Z,2.82
2023-01-23T10:34:07.364Z,2.81
2023-01-23T10:37:00.456Z,2.76
2023-01-23T10:39:40.670Z,2.86
2023-01-23T10:42:13.720Z,2.94
2023-01-23T10:44:40.315Z,2.99
2023-01-23T10:47:24.181Z,3.00
2023-01-23T10:49:51.225Z,3.04
2023-01-23T10:52:36.566Z,2.82
2023-01-23T10:55:30.997Z,2.75
2023-01-23T10:58:03.762Z,2.95
2023-01-23T11:00:39.164Z,2.88
2023-01-23T11:03:20.975Z,2.83
2023-01-23T11:06:16.330Z,2.83
2023-01-23T11:09:04.691Z,2.90
2023-01-23T11:11:33.128Z,2.81
2023-01-23T11:14:13.752Z,2.88
2023-01-23T11:16:40.692Z,2.95
2023-01-23T11:19:07.032Z,3.05
2023-01-23T11:21:37.613Z,3.10
2023-01-23T11:24:08.230Z,3.02
2023-01-23T11:26:38.278Z,2.97
2023-01-23T11:29:25.781Z,3.03
2023-01-23T11:32:05.693Z,3.14
2023-01-23T11:34:44.120Z,3.18
2023-01-23T11:37:28.102Z,3.20
2023-01-23T11:40:18.617Z,3.23
2023-01-23T11:42:46.467Z,3.25
2023-01-23T11:45:43.635Z,3.31
2023-01-23T11:48:36.168Z,3.10
2023-01-23T11:51:24.517Z,2.99
2023-01-23T11:54:18.468Z,3.00
2023-01-23T11:57:18.560Z,3.30
2023-01-23T12:00:13.127Z,3.07
2023-01-23T12:03:21.502Z,3.09
2023-01-23T12:06:20.540Z,3.09
2023-01-23T12:09:12.346Z,3.09
2023-01-23T12:11:57.209Z,3.22
2023-01-23T12:14:42.547Z,3.33
2023-01-23T12:17:27.047Z,3.24
2023-01-23T12:20:18.951Z,3.25
2023-01-23T12:23:18.675Z,3.29
2023-01-23T12:26:11.875Z,3.16
2023-01-23T12:28:44.156Z,3.21
2023-01-23T12:31:47.324Z,3.37
2023-01-23T12:34:19.429Z,3.51
2023-01-23T12:37:29.883Z,3.52
2023-01-23T12:40:33.937Z,3.47
2023-01-23T12:43:32.438Z,3.29
2023-01-23T12:46:11.304Z,3.12
2023-01-23T12:49:15.300Z,3.28
2023-01-23T12:51:50.708Z,3.34
2023-01-23T12:54:35.941Z,3.43
2023-01-23T12:57:06.259Z,3.53
2023-01-23T12:59:55.593Z,3.59
2023-01-23T13:02:55.279Z,3.51
2023-01-23T13:05:52.855Z,3.46
2023-01-23T13:09:00.119Z,3.49
2023-01-23T13:11:53.285Z,3.51
2023-01-23T13:14:36.839Z,3.63
2023-01-23T13:17:38.442Z,3.58
2023-01-23T13:20:40.492Z,3.38
2023-01-23T13:23:30.231Z,3.09
2023-01-23T13:26:15.425Z,3.35
2023-01-23T13:28:56.731Z,3.29
2023-01-23T13:31:47.082Z,3.32
2023-01-23T13:34:16.732Z,3.46
2023-01-23T13:36:48.742Z,3.46
2023-01-23T13:39:18.265Z,3.49
2023-01-23T13:41:47.740Z,3.62
2023-01-23T13:44:27.094Z,3.46
2023-01-23T14:22:36.633Z,3.24
2023-01-23T14:25:03.923Z,3.30
2023-01-23T14:27:52.124Z,3.13
2023-01-23T14:30:26.790Z,3.05
2023-01-23T14:32:53.716Z,2.98
2023-01-23T14:35:31.277Z,2.95
2023-01-23T14:38:06.452Z,2.83
2023-01-23T14:40:48.934Z,2.88
2023-01-23T14:43:26.625Z,2.83
2023-01-23T14:46:02.799Z,2.84
2023-01-23T14:48:36.512Z,2.94
2023-01-23T14:51:24.619Z,2.87
2023-01-23T14:54:01.763Z,2.84
2023-01-23T14:56:37.762Z,2.77
2023-01-23T14:59:23.185Z,2.85
2023-01-23T15:02:05.284Z,2.91
2023-01-23T15:04:36.807Z,3.02
2023-01-23T15:07:03.401Z,2.96
2023-01-23T15:09:41.436Z,2.98
2023-01-23T15:12:17.330Z,3.07
2023-01-23T15:14:45.385Z,3.12
2023-01-23T15:17:18.243Z,3.11
2023-01-23T15:19:56.537Z,2.72
2023-01-23T15:22:30.064Z,2.64
2023-01-23T15:24:57.186Z,2.71
2023-01-23T15:27:37.266Z,2.70
2023-01-23T15:30:44.938Z,2.63
2023-01-23T15:33:31.795Z,2.58
2023-01-23T15:36:05.909Z,2.67
2023-01-23T15:38:33.092Z,2.64
2023-01-23T15:40:59.870Z,2.60
2023-01-23T15:43:26.544Z,2.57
2023-01-23T15:45:53.737Z,2.65
2023-01-23T15:48:20.492Z,2.63
2023-01-23T15:50:47.145Z,2.69
2023-01-23T15:53:14.794Z,2.68
2023-01-23T15:55:41.431Z,2.63
2023-01-23T15:58:14.831Z,2.73
2023-01-23T16:00:41.726Z,2.75
2023-01-23T16:03:08.430Z,2.66
2023-01-23T16:05:37.450Z,2.61
2023-01-23T16:08:09.176Z,2.63
2023-01-23T16:10:39.124Z,2.40
2023-01-23T16:13:07.514Z,2.43
2023-01-23T16:15:35.929Z,2.39
2023-01-23T16:18:04.506Z,2.25
2023-01-23T16:20:45.140Z,2.27
2023-01-23T16:23:31.288Z,2.29
2023-01-23T16:26:02.629Z,2.32
2023-01-23T16:28:30.057Z,2.32
2023-01-23T16:30:56.571Z,2.27
2023-01-23T16:33:23.231Z,2.23
2023-01-23T16:35:51.441Z,2.24
2023-01-23T16:38:27.169Z,2.12
2023-01-23T16:40:56.676Z,2.01
2023-01-23T16:43:23.810Z,2.02
2023-01-23T16:45:54.219Z,2.15
2023-01-23T16:48:27.080Z,2.16
2023-01-23T16:51:03.971Z,2.03
2023-01-23T16:53:40.736Z,2.03
2023-01-23T16:56:14.729Z,1.69
2023-01-23T16:58:41.893Z,1.82
2023-01-23T17:01:22.901Z,2.00
2023-01-23T17:03:57.661Z,2.00
2023-01-23T17:06:24.201Z,2.07
2023-01-23T17:08:52.287Z,2.11
2023-01-23T17:11:26.579Z,2.15
2023-01-23T17:14:00.624Z,2.32
2023-01-23T17:16:28.313Z,2.45
2023-01-23T17:18:59.118Z,2.46
2023-01-23T17:21:33.586Z,2.41
2023-01-23T17:24:00.471Z,2.52
2023-01-23T17:26:27.194Z,2.54
2023-01-23T17:28:54.000Z,2.52
2023-01-23T17:31:26.523Z,2.55
2023-01-23T17:33:53.670Z,2.51
2023-01-23T17:36:20.190Z,2.45
2023-01-23T17:38:46.947Z,2.37
2023-01-23T17:41:15.818Z,2.34
2023-01-23T17:43:44.287Z,2.40
2023-01-23T17:46:29.599Z,2.25
2023-01-23T17:48:57.221Z,2.38
2023-01-23T17:51:25.759Z,2.46
2023-01-23T17:53:53.042Z,2.24
2023-01-23T17:56:19.556Z,2.28
2023-01-23T17:58:46.159Z,2.18
2023-01-23T18:01:22.176Z,2.06
2023-01-23T18:03:51.384Z,2.10
2023-01-23T18:06:19.181Z,2.22
2023-01-23T18:08:46.038Z,2.34
2023-01-23T18:11:24.149Z,2.36
2023-01-23T18:14:33.696Z,2.31
2023-01-23T18:17:00.578Z,2.40
2023-01-23T18:19:27.615Z,2.38
2023-01-23T18:21:57.217Z,2.36
2023-01-23T18:24:29.897Z,2.28
2023-01-23T18:27:21.633Z,2.32
2023-01-23T18:30:44.990Z,2.29
2023-01-23T18:33:47.947Z,2.33
2023-01-23T18:36:55.579Z,2.12
2023-01-23T18:39:47.021Z,2.08
2023-01-23T18:42:31.992Z,2.03
2023-01-23T18:45:20.686Z,2.00
2023-01-23T18:47:53.551Z,2.11
2023-01-23T18:50:22.880Z,1.98
2023-01-23T18:53:24.348Z,1.96
2023-01-23T18:56:30.417Z,1.96
2023-01-23T18:59:16.139Z,1.95
2023-01-23T19:01:53.706Z,2.14
2023-01-23T19:04:40.347Z,1.99
2023-01-23T19:07:18.983Z,1.98
2023-01-23T19:09:47.623Z,2.17
2023-01-23T19:12:29.059Z,2.44
2023-01-23T19:15:21.938Z,2.34
2023-01-23T19:18:18.704Z,2.48
2023-01-23T19:21:14.473Z,2.18
2023-01-23T19:23:57.690Z,2.18
2023-01-23T19:26:33.027Z,2.19
2023-01-23T19:29:19.120Z,2.30
2023-01-23T19:32:02.947Z,2.00
2023-01-23T19:34:30.485Z,2.15
2023-01-23T19:36:57.013Z,2.29
2023-01-23T19:39:23.553Z,2.36
2023-01-23T19:41:50.473Z,2.39
2023-01-23T19:44:20.171Z,2.27
2023-01-23T19:46:47.497Z,2.31
2023-01-23T19:49:14.145Z,2.34
2023-01-23T19:51:41.797Z,2.43
2023-01-23T19:54:13.176Z,2.40
2023-01-23T19:56:39.775Z,2.46
2023-01-23T19:59:07.423Z,2.35
2023-01-23T20:01:45.410Z,2.26
2023-01-23T20:04:22.126Z,2.11
2023-01-23T20:06:51.610Z,2.00
2023-01-23T20:09:18.239Z,2.19
2023-01-23T20:11:46.443Z,2.28
2023-01-23T20:14:12.979Z,2.09
2023-01-23T20:16:42.577Z,1.96
2023-01-23T20:19:15.581Z,2.05
2023-01-23T20:21:43.010Z,2.11
2023-01-23T20:24:09.587Z,2.10
2023-01-23T20:26:36.799Z,2.23
2023-01-23T20:29:04.986Z,2.33
2023-01-23T20:31:32.833Z,2.24
2023-01-23T20:33:59.697Z,2.26
2023-01-23T20:36:26.250Z,2.31
2023-01-23T20:38:52.759Z,2.25
2023-01-23T20:41:20.474Z,2.29
2023-01-23T20:43:47.879Z,2.32
2023-01-23T20:46:16.771Z,2.46
2023-01-23T20:48:45.137Z,2.41
2023-01-23T20:51:14.300Z,2.35
2023-01-23T20:53:41.562Z,2.33
2023-01-23T20:56:18.579Z,2.16
2023-01-23T20:59:07.621Z,2.29
2023-01-23T21:01:56.660Z,2.34
2023-01-23T21:04:28.409Z,2.33
2023-01-23T21:06:55.355Z,2.20
2023-01-23T21:09:23.038Z,2.20
2023-01-23T21:11:51.572Z,2.18
2023-01-23T21:14:19.412Z,2.13
2023-01-23T21:16:47.129Z,1.98
2023-01-23T21:19:15.389Z,1.99
2023-01-23T21:21:42.827Z,2.06
2023-01-23T21:24:10.030Z,2.03
2023-01-23T21:26:37.092Z,2.05
2023-01-23T21:29:04.710Z,1.99
2023-01-23T21:31:36.137Z,2.04
2023-01-23T21:34:06.939Z,2.19
2023-01-23T21:36:34.659Z,2.33
2023-01-23T21:39:01.973Z,2.31
2023-01-23T21:41:28.457Z,2.29
2023-01-23T21:43:55.058Z,2.39
2023-01-23T21:46:21.537Z,2.36
2023-01-23T21:48:48.120Z,2.30
2023-01-23T21:51:21.078Z,2.40
2023-01-23T21:53:50.308Z,2.45
2023-01-23T21:56:20.905Z,2.38
2023-01-23T21:58:48.414Z,2.37
2023-01-23T22:01:42.506Z,2.44
2023-01-23T22:04:13.314Z,2.49
2023-01-23T22:06:43.135Z,2.51
2023-01-23T22:09:15.387Z,2.49
2023-01-23T22:11:42.060Z,2.42
2023-01-23T22:14:08.503Z,2.32
2023-01-23T22:16:51.145Z,2.06
2023-01-23T22:19:24.594Z,1.94
2023-01-23T22:21:53.009Z,2.12
2023-01-23T22:24:19.765Z,2.16
2023-01-23T22:26:46.294Z,2.28
2023-01-23T22:29:13.933Z,2.39
2023-01-23T22:31:40.951Z,2.44
2023-01-23T22:34:07.577Z,2.49
2023-01-23T22:36:34.359Z,2.53
2023-01-23T22:39:00.885Z,2.53
2023-01-23T22:41:28.448Z,2.58
2023-01-23T22:43:59.035Z,2.53
2023-01-23T22:46:25.662Z,2.51
2023-01-23T22:48:52.204Z,2.49
2023-01-23T22:51:24.687Z,2.44
2023-01-23T22:53:53.659Z,2.43
2023-01-23T22:56:21.516Z,2.29
2023-01-23T22:58:50.343Z,2.22
2023-01-23T23:01:18.433Z,2.23
2023-01-23T23:03:46.074Z,2.15
2023-01-23T23:06:16.027Z,2.06
2023-01-23T23:08:47.131Z,2.11
2023-01-23T23:11:28.020Z,2.14
2023-01-23T23:13:56.654Z,2.23
2023-01-23T23:16:27.093Z,2.38
2023-01-23T23:18:56.207Z,2.22
2023-01-23T23:21:28.545Z,2.25
2023-01-23T23:23:59.755Z,2.31
2023-01-23T23:26:29.943Z,2.29
2023-01-23T23:28:56.825Z,2.44
2023-01-23T23:31:23.438Z,2.36
2023-01-23T23:33:50.252Z,2.29
2023-01-23T23:36:17.401Z,2.33
2023-01-23T23:38:44.214Z,2.24
2023-01-23T23:41:16.236Z,2.16
2023-01-23T23:43:43.966Z,2.21
2023-01-23T23:46:11.797Z,2.10
2023-01-23T23:48:39.787Z,2.10
2023-01-23T23:51:09.530Z,1.96
2023-01-23T23:53:36.886Z,1.84
2023-01-23T23:56:05.451Z,1.83
2023-01-23T23:58:34.938Z,1.91
